createdAt,value
2023-01-23T00:04:51.630Z,1.38
2023-01-23T00:09:54.523Z,1.40
2023-01-23T00:15:03.744Z,1.47
2023-01-23T00:20:07.279Z,1.55
2023-01-23T00:25:09.109Z,1.58
2023-01-23T00:30:11.408Z,1.44
2023-01-23T00:35:13.151Z,1.55
2023-01-23T00:40:15.068Z,1.40
2023-01-23T00:45:16.750Z,1.49
2023-01-23T00:50:18.998Z,1.54
2023-01-23T00:55:20.978Z,1.44
2023-01-23T01:00:22.875Z,1.40
2023-01-23T01:05:24.692Z,1.42
2023-01-23T01:10:30.338Z,1.33
2023-01-23T01:15:32.851Z,1.38
2023-01-23T01:20:34.693Z,1.42
2023-01-23T01:25:36.778Z,1.36
2023-01-23T01:30:38.602Z,1.44
2023-01-23T01:35:41.248Z,1.44
2023-01-23T01:40:43.165Z,1.38
2023-01-23T01:46:23.456Z,1.34
2023-01-23T01:51:28.417Z,1.38
2023-01-23T01:56:35.965Z,1.44
2023-01-23T02:01:39.316Z,1.51
2023-01-23T02:06:41.878Z,1.46
2023-01-23T02:11:43.784Z,1.44
2023-01-23T02:16:50.542Z,1.48
2023-01-23T02:21:58.853Z,1.49
2023-01-23T02:27:00.891Z,1.48
2023-01-23T02:32:02.881Z,1.48
2023-01-23T02:37:06.611Z,1.40
2023-01-23T02:42:09.700Z,1.35
2023-01-23T02:47:23.102Z,1.34
2023-01-23T02:52:25.249Z,1.36
2023-01-23T02:57:27.033Z,1.36
2023-01-23T03:02:28.972Z,1.34
2023-01-23T03:07:30.747Z,1.39
2023-01-23T03:12:32.541Z,1.37
2023-01-23T03:17:34.264Z,1.34
2023-01-23T03:22:36.101Z,1.11
2023-01-23T03:27:37.864Z,1.39
2023-01-23T03:32:40.878Z,1.40
2023-01-23T03:37:44.104Z,1.41
2023-01-23T03:42:46.115Z,1.35
2023-01-23T03:47:49.276Z,1.35
2023-01-23T03:52:51.206Z,1.38
2023-01-23T03:57:53.483Z,1.38
2023-01-23T04:03:06.140Z,1.33
2023-01-23T04:08:08.200Z,1.30
2023-01-23T04:13:10.260Z,1.33
2023-01-23T04:18:13.247Z,1.35
2023-01-23T04:23:15.046Z,1.36
2023-01-23T04:28:17.994Z,1.35
2023-01-23T04:33:20.594Z,1.34
2023-01-23T04:38:25.090Z,1.28
2023-01-23T04:43:27.272Z,1.27
2023-01-23T04:48:29.212Z,1.25
2023-01-23T04:53:30.964Z,1.32
2023-01-23T04:58:35.184Z,1.31
2023-01-23T05:03:38.074Z,1.31
2023-01-23T05:08:39.864Z,1.30
2023-01-23T05:13:47.779Z,1.28
2023-01-23T05:18:49.827Z,1.25
2023-01-23T05:23:51.949Z,1.20
2023-01-23T05:28:55.441Z,1.17
2023-01-23T05:33:57.190Z,1.21
2023-01-23T05:38:59.007Z,1.22
2023-01-23T05:44:02.459Z,1.17
2023-01-23T05:49:11.353Z,1.16
2023-01-23T05:54:13.183Z,1.19
2023-01-23T05:59:18.186Z,1.24
2023-01-23T06:04:27.938Z,1.24
2023-01-23T06:09:48.291Z,1.27
2023-01-23T06:14:52.935Z,1.29
2023-01-23T06:19:54.749Z,1.29
2023-01-23T06:24:57.260Z,1.26
2023-01-23T06:29:58.982Z,1.16
2023-01-23T06:35:02.317Z,1.18
2023-01-23T06:40:08.194Z,1.33
2023-01-23T06:45:11.260Z,1.31
2023-01-23T06:50:13.262Z,1.31
2023-01-23T06:55:15.138Z,1.26
2023-01-23T07:00:19.097Z,1.22
2023-01-23T07:05:21.624Z,1.22
2023-01-23T07:10:24.388Z,1.22
2023-01-23T07:15:26.282Z,1.24
2023-01-23T07:20:28.840Z,1.12
2023-01-23T07:25:32.610Z,1.21
2023-01-23T07:30:40.951Z,1.25
2023-01-23T07:35:42.724Z,1.29
2023-01-23T07:40:45.432Z,1.32
2023-01-23T07:45:47.163Z,1.35
2023-01-23T07:50:48.916Z,1.41
2023-01-23T07:55:50.672Z,1.48
2023-01-23T08:00:52.376Z,1.51
2023-01-23T08:05:54.733Z,1.59
2023-01-23T08:10:56.572Z,1.68
2023-01-23T08:15:59.170Z,1.75
2023-01-23T08:21:03.419Z,1.77
2023-01-23T08:26:08.296Z,1.78
2023-01-23T08:31:11.884Z,1.79
2023-01-23T08:36:14.177Z,1.81
2023-01-23T08:41:16.181Z,1.91
2023-01-23T08:46:17.905Z,1.93
2023-01-23T08:51:19.681Z,1.90
2023-01-23T08:56:23.516Z,1.88
2023-01-23T09:01:27.002Z,1.89
2023-01-23T09:06:28.723Z,1.82
2023-01-23T09:11:30.536Z,2.03
2023-01-23T09:16:32.304Z,2.10
2023-01-23T09:21:34.460Z,2.20
2023-01-23T09:26:36.187Z,2.30
2023-01-23T09:31:38.243Z,2.34
2023-01-23T09:36:43.391Z,2.35
2023-01-23T09:41:46.859Z,2.42
2023-01-23T09:47:04.832Z,2.58
2023-01-23T09:52:23.997Z,2.82
2023-01-23T09:57:32.923Z,3.00
2023-01-23T10:02:34.639Z,3.05
2023-01-23T10:07:49.891Z,3.21
2023-01-23T10:13:09.293Z,3.32
2023-01-23T10:18:18.328Z,3.32
2023-01-23T10:23:32.381Z,3.40
2023-01-23T10:28:38.891Z,3.54
2023-01-23T10:33:50.261Z,3.57
2023-01-23T10:39:06.945Z,3.59
2023-01-23T10:44:20.107Z,3.70
2023-01-23T10:49:37.681Z,3.72
2023-01-23T10:54:46.998Z,3.56
2023-01-23T10:59:56.021Z,3.42
2023-01-23T11:04:59.303Z,3.24
2023-01-23T11:10:16.462Z,3.09
2023-01-23T11:15:33.280Z,2.95
2023-01-23T11:20:39.281Z,2.93
2023-01-23T11:25:46.745Z,2.93
2023-01-23T11:31:00.913Z,2.90
2023-01-23T11:36:18.865Z,2.84
2023-01-23T11:41:25.049Z,2.81
2023-01-23T11:46:51.923Z,2.77
2023-01-23T11:52:13.686Z,2.69
2023-01-23T11:57:29.836Z,2.64
2023-01-23T12:03:02.738Z,2.65
2023-01-23T12:08:32.798Z,2.71
2023-01-23T12:14:00.463Z,2.79
2023-01-23T12:19:21.146Z,2.85
2023-01-23T12:24:40.519Z,2.90
2023-01-23T12:30:12.704Z,2.96
2023-01-23T12:35:33.427Z,3.00
2023-01-23T12:40:50.715Z,3.07
2023-01-23T12:46:08.955Z,3.22
2023-01-23T12:51:18.999Z,3.33
2023-01-23T12:56:25.908Z,3.36
2023-01-23T13:01:50.744Z,3.53
2023-01-23T13:07:18.974Z,3.62
2023-01-23T13:12:26.267Z,3.63
2023-01-23T13:17:35.580Z,3.60
2023-01-23T13:22:38.601Z,3.57
2023-01-23T13:27:51.283Z,3.50
2023-01-23T13:33:00.844Z,3.36
2023-01-23T13:38:02.572Z,3.20
2023-01-23T13:43:44.373Z,3.07
2023-01-23T14:21:41.104Z,2.57
2023-01-23T14:26:49.830Z,2.53
2023-01-23T14:31:51.912Z,2.48
2023-01-23T14:37:05.718Z,2.46
2023-01-23T14:42:11.638Z,2.45
2023-01-23T14:47:28.233Z,2.39
2023-01-23T14:52:31.457Z,2.35
2023-01-23T14:57:33.401Z,2.28
2023-01-23T15:02:36.457Z,2.20
2023-01-23T15:07:56.156Z,2.15
2023-01-23T15:13:05.216Z,2.12
2023-01-23T15:18:23.150Z,2.16
2023-01-23T15:23:31.602Z,2.19
2023-01-23T15:28:53.933Z,2.15
2023-01-23T15:34:10.346Z,2.14
2023-01-23T15:39:19.917Z,2.12
2023-01-23T15:44:23.400Z,2.04
2023-01-23T15:49:26.516Z,2.00
2023-01-23T15:54:37.075Z,1.97
2023-01-23T15:59:38.826Z,1.94
2023-01-23T16:04:40.487Z,1.88
2023-01-23T16:09:45.591Z,1.86
2023-01-23T16:14:48.351Z,1.86
2023-01-23T16:19:50.735Z,1.83
2023-01-23T16:24:53.466Z,1.79
2023-01-23T16:29:55.604Z,1.77
2023-01-23T16:34:57.405Z,1.76
2023-01-23T16:39:59.114Z,1.75
2023-01-23T16:45:00.782Z,1.70
2023-01-23T16:50:02.541Z,1.69
2023-01-23T16:55:12.059Z,1.67
2023-01-23T17:00:33.479Z,1.62
2023-01-23T17:05:37.006Z,1.61
2023-01-23T17:10:46.118Z,1.59
2023-01-23T17:15:51.388Z,1.55
2023-01-23T17:20:57.069Z,1.54
2023-01-23T17:26:01.116Z,1.55
2023-01-23T17:31:04.992Z,1.54
2023-01-23T17:36:07.742Z,1.51
2023-01-23T17:41:16.879Z,1.51
2023-01-23T17:46:31.394Z,1.50
2023-01-23T17:51:33.741Z,1.47
2023-01-23T17:56:35.661Z,1.49
2023-01-23T18:01:37.668Z,1.51
2023-01-23T18:06:39.332Z,1.53
2023-01-23T18:11:49.709Z,1.51
2023-01-23T18:16:53.148Z,1.50
2023-01-23T18:21:57.465Z,1.49
2023-01-23T18:27:00.708Z,1.47
2023-01-23T18:32:02.562Z,1.48
2023-01-23T18:37:19.176Z,1.48
2023-01-23T18:42:59.457Z,1.48
2023-01-23T18:48:01.706Z,1.49
2023-01-23T18:53:15.800Z,1.48
2023-01-23T18:58:47.123Z,1.46
2023-01-23T19:03:48.922Z,1.46
2023-01-23T19:08:52.448Z,1.47
2023-01-23T19:14:19.216Z,1.50
2023-01-23T19:19:40.094Z,1.47
2023-01-23T19:24:42.306Z,1.47
2023-01-23T19:29:44.410Z,1.46
2023-01-23T19:34:46.141Z,1.45
2023-01-23T19:39:47.868Z,1.46
2023-01-23T19:44:49.645Z,1.48
2023-01-23T19:49:51.328Z,1.49
2023-01-23T19:54:53.169Z,1.47
2023-01-23T19:59:55.039Z,1.46
2023-01-23T20:04:57.878Z,1.45
2023-01-23T20:09:59.575Z,1.45
2023-01-23T20:15:01.294Z,1.47
2023-01-23T20:20:05.184Z,1.48
2023-01-23T20:25:10.554Z,1.49
2023-01-23T20:30:18.300Z,1.49
2023-01-23T20:35:20.078Z,1.51
2023-01-23T20:40:21.751Z,1.51
2023-01-23T20:45:24.351Z,1.51
2023-01-23T20:50:26.367Z,1.51
2023-01-23T20:55:28.029Z,1.49
2023-01-23T21:00:29.719Z,1.49
2023-01-23T21:05:31.504Z,1.50
2023-01-23T21:10:33.228Z,1.52
2023-01-23T21:15:34.943Z,1.50
2023-01-23T21:20:39.240Z,1.50
2023-01-23T21:25:41.216Z,1.49
2023-01-23T21:30:43.244Z,1.44
2023-01-23T21:35:49.887Z,1.44
2023-01-23T21:40:53.936Z,1.47
2023-01-23T21:45:57.264Z,1.48
2023-01-23T21:51:16.109Z,1.46
2023-01-23T21:56:20.794Z,1.46
2023-01-23T22:01:42.128Z,1.44
2023-01-23T22:06:45.924Z,1.43
2023-01-23T22:11:48.951Z,1.41
2023-01-23T22:16:52.534Z,1.41
2023-01-23T22:21:55.172Z,1.38
2023-01-23T22:26:57.129Z,1.38
2023-01-23T22:31:59.637Z,1.36
2023-01-23T22:37:01.591Z,1.35
2023-01-23T22:42:03.389Z,1.34
2023-01-23T22:47:05.679Z,1.35
2023-01-23T22:52:08.615Z,1.35
2023-01-23T22:57:11.160Z,1.37
2023-01-23T23:02:12.854Z,1.38
2023-01-23T23:07:16.927Z,1.40
2023-01-23T23:12:18.615Z,1.42
2023-01-23T23:17:20.387Z,1.45
2023-01-23T23:22:22.367Z,1.44
2023-01-23T23:27:24.050Z,1.46
2023-01-23T23:32:25.805Z,1.49
2023-01-23T23:37:27.643Z,1.53
2023-01-23T23:42:29.367Z,1.53
2023-01-23T23:47:31.076Z,1.57
2023-01-23T23:52:36.939Z,1.59
2023-01-23T23:57:39.541Z,1.57
